UTA536 USRR-USTR
Flight info
| Callsign | UTA536 |
|---|---|
| Flight time | 1h 16m |
| Altitude | 36000 |
| Route | ANIKI T797 NERUG |
| Aircraft | B738/M-SDE2E3FGHIRWXY/LB1 |
Departure
| Time | 2026-05-07 19:05 |
|---|---|
| Airport | Surgut International Airport (USRR) |
Arrival
| Time | 2026-05-07 20:21 |
|---|---|
| Airport | Roshchino International Airport (USTR) |
| Time | Latitude | Longitude | Altitude | Speed | Heading |
|---|---|---|---|---|---|
| 2026-05-07 18:45 | 61.34093 | 73.40595 | 188 ft | 0 kts | 179° |
| 2026-05-07 18:55 | 61.34106 | 73.40595 | 188 ft | 2 kts | 179° |
| 2026-05-07 18:56 | 61.34121 | 73.40595 | 189 ft | 2 kts | 180° |
| 2026-05-07 18:56 | 61.34136 | 73.40595 | 189 ft | 2 kts | 179° |
| 2026-05-07 18:56 | 61.34151 | 73.40598 | 189 ft | 2 kts | 201° |
| 2026-05-07 18:56 | 61.34164 | 73.40614 | 190 ft | 2 kts | 220° |
| 2026-05-07 18:57 | 61.34174 | 73.40637 | 190 ft | 2 kts | 241° |
| 2026-05-07 18:57 | 61.34179 | 73.40666 | 190 ft | 2 kts | 262° |
| 2026-05-07 18:57 | 61.34179 | 73.40681 | 190 ft | 1 kts | 272° |
| 2026-05-07 18:57 | 61.34179 | 73.40688 | 190 ft | 0 kts | 270° |
| 2026-05-07 18:59 | 61.34178 | 73.40565 | 190 ft | 11 kts | 269° |
| 2026-05-07 18:59 | 61.34177 | 73.40407 | 190 ft | 10 kts | 269° |
| 2026-05-07 18:59 | 61.34176 | 73.40264 | 190 ft | 9 kts | 269° |
| 2026-05-07 19:00 | 61.34175 | 73.40134 | 189 ft | 9 kts | 269° |
| 2026-05-07 19:00 | 61.34175 | 73.39987 | 186 ft | 11 kts | 269° |
| 2026-05-07 19:00 | 61.34175 | 73.39838 | 186 ft | 10 kts | 270° |
| 2026-05-07 19:00 | 61.34174 | 73.39681 | 183 ft | 12 kts | 269° |
| 2026-05-07 19:01 | 61.34172 | 73.39491 | 180 ft | 14 kts | 269° |
| 2026-05-07 19:01 | 61.34172 | 73.39297 | 179 ft | 13 kts | 270° |
| 2026-05-07 19:01 | 61.34172 | 73.39092 | 176 ft | 14 kts | 269° |
| 2026-05-07 19:01 | 61.34171 | 73.38885 | 174 ft | 15 kts | 270° |
| 2026-05-07 19:02 | 61.34170 | 73.38672 | 173 ft | 14 kts | 269° |
| 2026-05-07 19:02 | 61.34168 | 73.38442 | 168 ft | 16 kts | 268° |
| 2026-05-07 19:02 | 61.34170 | 73.38253 | 165 ft | 7 kts | 297° |
| 2026-05-07 19:02 | 61.34211 | 73.38171 | 164 ft | 8 kts | 320° |
| 2026-05-07 19:03 | 61.34244 | 73.38116 | 164 ft | 0 kts | 321° |
| 2026-05-07 19:03 | 61.34249 | 73.38107 | 164 ft | 1 kts | 321° |
| 2026-05-07 19:03 | 61.34262 | 73.38085 | 163 ft | 3 kts | 321° |
| 2026-05-07 19:03 | 61.34302 | 73.38039 | 163 ft | 8 kts | 352° |
| 2026-05-07 19:04 | 61.34356 | 73.38039 | 163 ft | 6 kts | 11° |
| 2026-05-07 19:04 | 61.34379 | 73.38090 | 164 ft | 3 kts | 75° |
| 2026-05-07 19:04 | 61.34380 | 73.38134 | 165 ft | 2 kts | 88° |
| 2026-05-07 19:04 | 61.34381 | 73.38493 | 172 ft | 59 kts | 89° |
| 2026-05-07 19:05 | 61.34387 | 73.39851 | 190 ft | 124 kts | 89° |
| 2026-05-07 19:05 | 61.34391 | 73.42024 | 307 ft | 167 kts | 89° |
| 2026-05-07 19:05 | 61.34397 | 73.44346 | 1050 ft | 166 kts | 86° |
| 2026-05-07 19:05 | 61.34647 | 73.46671 | 1659 ft | 173 kts | 57° |
| 2026-05-07 19:06 | 61.35476 | 73.48483 | 2163 ft | 179 kts | 31° |
| 2026-05-07 19:06 | 61.37954 | 73.49659 | 2980 ft | 204 kts | 342° |
| 2026-05-07 19:06 | 61.39201 | 73.48171 | 3480 ft | 217 kts | 317° |
| 2026-05-07 19:07 | 61.40063 | 73.45506 | 3952 ft | 234 kts | 290° |
| 2026-05-07 19:07 | 61.40104 | 73.42021 | 4460 ft | 254 kts | 256° |
| 2026-05-07 19:07 | 61.39227 | 73.39018 | 5178 ft | 264 kts | 232° |
| 2026-05-07 19:07 | 61.37877 | 73.36325 | 5904 ft | 269 kts | 226° |
| 2026-05-07 19:08 | 61.36466 | 73.33765 | 6651 ft | 271 kts | 226° |
| 2026-05-07 19:08 | 61.35075 | 73.31159 | 7404 ft | 271 kts | 229° |
| 2026-05-07 19:08 | 61.33907 | 73.28304 | 8094 ft | 267 kts | 242° |
| 2026-05-07 19:08 | 61.33050 | 73.24881 | 8827 ft | 265 kts | 250° |
| 2026-05-07 19:09 | 61.32320 | 73.21386 | 9554 ft | 265 kts | 251° |
| 2026-05-07 19:09 | 61.31582 | 73.17917 | 10224 ft | 268 kts | 250° |
| 2026-05-07 19:09 | 61.30790 | 73.14369 | 10615 ft | 281 kts | 249° |
| 2026-05-07 19:09 | 61.29933 | 73.10647 | 10986 ft | 294 kts | 249° |
| 2026-05-07 19:10 | 61.29027 | 73.06778 | 11501 ft | 301 kts | 249° |
| 2026-05-07 19:10 | 61.28112 | 73.02905 | 12279 ft | 301 kts | 249° |
| 2026-05-07 19:10 | 61.27205 | 72.99072 | 13094 ft | 298 kts | 249° |
| 2026-05-07 19:10 | 61.26303 | 72.95252 | 13813 ft | 299 kts | 250° |
| 2026-05-07 19:11 | 61.25389 | 72.91374 | 14583 ft | 298 kts | 250° |
| 2026-05-07 19:11 | 61.24495 | 72.87587 | 15319 ft | 298 kts | 250° |
| 2026-05-07 19:11 | 61.23641 | 72.83972 | 16012 ft | 298 kts | 250° |
| 2026-05-07 19:11 | 61.22724 | 72.80092 | 16678 ft | 300 kts | 250° |
| 2026-05-07 19:12 | 61.21817 | 72.76270 | 17391 ft | 299 kts | 250° |
| 2026-05-07 19:12 | 61.20910 | 72.72459 | 18027 ft | 300 kts | 250° |
| 2026-05-07 19:12 | 61.20006 | 72.68663 | 18654 ft | 301 kts | 250° |
| 2026-05-07 19:12 | 61.19075 | 72.64757 | 19269 ft | 304 kts | 250° |
| 2026-05-07 19:13 | 61.18141 | 72.60843 | 19806 ft | 307 kts | 250° |
| 2026-05-07 19:13 | 61.17191 | 72.56872 | 20375 ft | 310 kts | 250° |
| 2026-05-07 19:13 | 61.16251 | 72.52953 | 20928 ft | 312 kts | 250° |
| 2026-05-07 19:13 | 61.15284 | 72.48929 | 21508 ft | 313 kts | 250° |
| 2026-05-07 19:14 | 61.14316 | 72.44913 | 22073 ft | 314 kts | 250° |
| 2026-05-07 19:14 | 61.13348 | 72.40904 | 22606 ft | 316 kts | 250° |
| 2026-05-07 19:14 | 61.12361 | 72.36816 | 23135 ft | 318 kts | 250° |
| 2026-05-07 19:14 | 61.11373 | 72.32733 | 23623 ft | 321 kts | 249° |
| 2026-05-07 19:15 | 61.10377 | 72.28620 | 24093 ft | 324 kts | 249° |
| 2026-05-07 19:15 | 61.09371 | 72.24488 | 24578 ft | 326 kts | 249° |
| 2026-05-07 19:15 | 61.08361 | 72.20345 | 25048 ft | 328 kts | 249° |
| 2026-05-07 19:15 | 61.07329 | 72.16112 | 25568 ft | 329 kts | 249° |
| 2026-05-07 19:16 | 61.06298 | 72.11898 | 25965 ft | 333 kts | 249° |
| 2026-05-07 19:16 | 61.05264 | 72.07672 | 26468 ft | 334 kts | 249° |
| 2026-05-07 19:16 | 61.04245 | 72.03519 | 26885 ft | 336 kts | 249° |
| 2026-05-07 19:16 | 61.03189 | 71.99219 | 27318 ft | 338 kts | 249° |
| 2026-05-07 19:17 | 61.02136 | 71.94943 | 27692 ft | 341 kts | 249° |
| 2026-05-07 19:17 | 61.01017 | 71.90624 | 28118 ft | 345 kts | 246° |
| 2026-05-07 19:17 | 60.99970 | 71.87347 | 28453 ft | 352 kts | 240° |
| 2026-05-07 19:17 | 60.98085 | 71.83078 | 28875 ft | 363 kts | 233° |
| 2026-05-07 19:18 | 60.96199 | 71.79615 | 29325 ft | 366 kts | 230° |
| 2026-05-07 19:18 | 60.94240 | 71.76275 | 29674 ft | 370 kts | 229° |
| 2026-05-07 19:18 | 60.92370 | 71.73148 | 29981 ft | 372 kts | 228° |
| 2026-05-07 19:18 | 60.90347 | 71.69778 | 30405 ft | 373 kts | 229° |
| 2026-05-07 19:19 | 60.88347 | 71.66432 | 30618 ft | 377 kts | 229° |
| 2026-05-07 19:19 | 60.86314 | 71.63011 | 30897 ft | 380 kts | 229° |
| 2026-05-07 19:19 | 60.84404 | 71.59796 | 31267 ft | 379 kts | 229° |
| 2026-05-07 19:19 | 60.82343 | 71.56319 | 31665 ft | 378 kts | 229° |
| 2026-05-07 19:20 | 60.80328 | 71.52914 | 32049 ft | 377 kts | 229° |
| 2026-05-07 19:20 | 60.78313 | 71.49502 | 32445 ft | 375 kts | 229° |
| 2026-05-07 19:20 | 60.76435 | 71.46323 | 32824 ft | 374 kts | 229° |
| 2026-05-07 19:20 | 60.74383 | 71.42848 | 33115 ft | 374 kts | 228° |
| 2026-05-07 19:21 | 60.72395 | 71.39487 | 33501 ft | 372 kts | 229° |
| 2026-05-07 19:21 | 60.70439 | 71.36188 | 33894 ft | 370 kts | 228° |
| 2026-05-07 19:21 | 60.68794 | 71.33417 | 34204 ft | 368 kts | 227° |
| 2026-05-07 19:21 | 60.66853 | 71.30145 | 34338 ft | 373 kts | 227° |
| 2026-05-07 19:22 | 60.64714 | 71.26548 | 34737 ft | 369 kts | 227° |
| 2026-05-07 19:22 | 60.62741 | 71.23244 | 34877 ft | 371 kts | 227° |
| 2026-05-07 19:22 | 60.58798 | 71.16636 | 35157 ft | 374 kts | 227° |
| 2026-05-07 19:23 | 60.56812 | 71.13319 | 35318 ft | 375 kts | 227° |
| 2026-05-07 19:23 | 60.54797 | 71.09960 | 35437 ft | 376 kts | 227° |
| 2026-05-07 19:23 | 60.52831 | 71.06690 | 35627 ft | 376 kts | 226° |
| 2026-05-07 19:23 | 60.50825 | 71.03359 | 35697 ft | 380 kts | 227° |
| 2026-05-07 19:24 | 60.48789 | 70.99981 | 35858 ft | 380 kts | 227° |
| 2026-05-07 19:24 | 60.46780 | 70.96658 | 35962 ft | 381 kts | 226° |
| 2026-05-07 19:24 | 60.42713 | 70.89945 | 36003 ft | 381 kts | 226° |
| 2026-05-07 19:25 | 60.38689 | 70.83337 | 35995 ft | 380 kts | 226° |
| 2026-05-07 19:25 | 60.34739 | 70.76861 | 35992 ft | 381 kts | 226° |
| 2026-05-07 19:26 | 60.30786 | 70.70403 | 35988 ft | 380 kts | 226° |
| 2026-05-07 19:26 | 60.26950 | 70.64150 | 35999 ft | 381 kts | 226° |
| 2026-05-07 19:27 | 60.22935 | 70.57631 | 35997 ft | 381 kts | 226° |
| 2026-05-07 19:27 | 60.19039 | 70.51323 | 36008 ft | 380 kts | 226° |
| 2026-05-07 19:28 | 60.14986 | 70.44783 | 36000 ft | 380 kts | 226° |
| 2026-05-07 19:28 | 60.11017 | 70.38398 | 35997 ft | 380 kts | 226° |
| 2026-05-07 19:29 | 60.06918 | 70.31821 | 36014 ft | 382 kts | 225° |
| 2026-05-07 19:29 | 60.02872 | 70.25355 | 35997 ft | 381 kts | 225° |
| 2026-05-07 19:30 | 59.98790 | 70.18854 | 35992 ft | 381 kts | 225° |
| 2026-05-07 19:30 | 59.94755 | 70.12441 | 36005 ft | 385 kts | 225° |
| 2026-05-07 19:31 | 59.90641 | 70.05933 | 36005 ft | 383 kts | 225° |
| 2026-05-07 19:31 | 59.86666 | 69.99666 | 36016 ft | 382 kts | 225° |
| 2026-05-07 19:32 | 59.82575 | 69.93233 | 36001 ft | 383 kts | 225° |
| 2026-05-07 19:32 | 59.78492 | 69.86833 | 36005 ft | 384 kts | 225° |
| 2026-05-07 19:33 | 59.74382 | 69.80411 | 36013 ft | 383 kts | 225° |
| 2026-05-07 19:33 | 59.70316 | 69.74083 | 36008 ft | 382 kts | 225° |
| 2026-05-07 19:34 | 59.66179 | 69.67662 | 35995 ft | 382 kts | 225° |
| 2026-05-07 19:34 | 59.62151 | 69.61425 | 36016 ft | 384 kts | 225° |
| 2026-05-07 19:35 | 59.58064 | 69.55117 | 36002 ft | 383 kts | 225° |
| 2026-05-07 19:35 | 59.54038 | 69.48925 | 36013 ft | 385 kts | 225° |
| 2026-05-07 19:36 | 59.49886 | 69.42553 | 36008 ft | 384 kts | 225° |
| 2026-05-07 19:36 | 59.45824 | 69.36339 | 36004 ft | 383 kts | 225° |
| 2026-05-07 19:37 | 59.41714 | 69.30067 | 35999 ft | 385 kts | 224° |
| 2026-05-07 19:37 | 59.37558 | 69.23747 | 36007 ft | 385 kts | 224° |
| 2026-05-07 19:38 | 59.33375 | 69.17406 | 35999 ft | 385 kts | 224° |
| 2026-05-07 19:38 | 59.29250 | 69.11175 | 36014 ft | 386 kts | 224° |
| 2026-05-07 19:39 | 59.25137 | 69.04978 | 36007 ft | 385 kts | 223° |
| 2026-05-07 19:39 | 59.20982 | 68.98742 | 36008 ft | 386 kts | 224° |
| 2026-05-07 19:40 | 59.16858 | 68.92568 | 36015 ft | 386 kts | 223° |
| 2026-05-07 19:40 | 59.12844 | 68.86000 | 36003 ft | 383 kts | 229° |
| 2026-05-07 19:41 | 59.09197 | 68.78940 | 36009 ft | 380 kts | 230° |
| 2026-05-07 19:41 | 59.05560 | 68.71751 | 36011 ft | 382 kts | 230° |
| 2026-05-07 19:42 | 59.01954 | 68.64736 | 36008 ft | 383 kts | 230° |
| 2026-05-07 19:42 | 58.98256 | 68.57636 | 36008 ft | 382 kts | 230° |
| 2026-05-07 19:43 | 58.94622 | 68.50706 | 36004 ft | 384 kts | 230° |
| 2026-05-07 19:43 | 58.90851 | 68.43553 | 36001 ft | 383 kts | 230° |
| 2026-05-07 19:44 | 58.87189 | 68.36626 | 36004 ft | 384 kts | 229° |
| 2026-05-07 19:44 | 58.83404 | 68.29489 | 36005 ft | 384 kts | 229° |
| 2026-05-07 19:45 | 58.79641 | 68.22419 | 36001 ft | 385 kts | 229° |
| 2026-05-07 19:45 | 58.75805 | 68.15233 | 36002 ft | 386 kts | 229° |
| 2026-05-07 19:46 | 58.72131 | 68.08377 | 36004 ft | 386 kts | 229° |
| 2026-05-07 19:46 | 58.68343 | 68.01327 | 35997 ft | 387 kts | 229° |
| 2026-05-07 19:47 | 58.64596 | 67.94376 | 35995 ft | 387 kts | 229° |
| 2026-05-07 19:47 | 58.62259 | 67.90050 | 35992 ft | 386 kts | 228° |
| 2026-05-07 19:48 | 58.58520 | 67.83149 | 35992 ft | 388 kts | 228° |
| 2026-05-07 19:48 | 58.54733 | 67.76184 | 35869 ft | 382 kts | 228° |
| 2026-05-07 19:49 | 58.52866 | 67.72763 | 35593 ft | 376 kts | 228° |
| 2026-05-07 19:49 | 58.51067 | 67.69469 | 35205 ft | 375 kts | 228° |
| 2026-05-07 19:49 | 58.49222 | 67.66093 | 34697 ft | 375 kts | 228° |
| 2026-05-07 19:49 | 58.47358 | 67.62682 | 34113 ft | 373 kts | 228° |
| 2026-05-07 19:50 | 58.45573 | 67.59425 | 33626 ft | 370 kts | 228° |
| 2026-05-07 19:50 | 58.43744 | 67.56091 | 33135 ft | 366 kts | 228° |
| 2026-05-07 19:50 | 58.41980 | 67.52884 | 32658 ft | 363 kts | 228° |
| 2026-05-07 19:50 | 58.40207 | 67.49666 | 32185 ft | 359 kts | 229° |
| 2026-05-07 19:51 | 58.38432 | 67.46448 | 31710 ft | 356 kts | 229° |
| 2026-05-07 19:51 | 58.36708 | 67.43325 | 31251 ft | 352 kts | 228° |
| 2026-05-07 19:51 | 58.34959 | 67.40162 | 30785 ft | 349 kts | 229° |
| 2026-05-07 19:51 | 58.33218 | 67.37019 | 30322 ft | 345 kts | 229° |
| 2026-05-07 19:52 | 58.31530 | 67.33975 | 29875 ft | 342 kts | 228° |
| 2026-05-07 19:52 | 58.29863 | 67.30974 | 29434 ft | 339 kts | 228° |
| 2026-05-07 19:52 | 58.28153 | 67.27895 | 28974 ft | 336 kts | 228° |
| 2026-05-07 19:52 | 58.26470 | 67.24869 | 28523 ft | 334 kts | 228° |
| 2026-05-07 19:53 | 58.24822 | 67.21910 | 28078 ft | 332 kts | 228° |
| 2026-05-07 19:53 | 58.23148 | 67.18906 | 27632 ft | 337 kts | 228° |
| 2026-05-07 19:53 | 58.21447 | 67.15853 | 27168 ft | 340 kts | 228° |
| 2026-05-07 19:53 | 58.19727 | 67.12781 | 26702 ft | 338 kts | 228° |
| 2026-05-07 19:54 | 58.18042 | 67.09779 | 26248 ft | 335 kts | 228° |
| 2026-05-07 19:54 | 58.16336 | 67.06745 | 25789 ft | 332 kts | 228° |
| 2026-05-07 19:54 | 58.14681 | 67.03806 | 25351 ft | 330 kts | 228° |
| 2026-05-07 19:54 | 58.13034 | 67.00883 | 24911 ft | 327 kts | 228° |
| 2026-05-07 19:55 | 58.11395 | 66.97977 | 24476 ft | 325 kts | 229° |
| 2026-05-07 19:55 | 58.09758 | 66.95077 | 24041 ft | 323 kts | 229° |
| 2026-05-07 19:55 | 58.08107 | 66.92156 | 23597 ft | 322 kts | 229° |
| 2026-05-07 19:55 | 58.06475 | 66.89272 | 23167 ft | 320 kts | 229° |
| 2026-05-07 19:56 | 58.04867 | 66.86434 | 22739 ft | 318 kts | 229° |
| 2026-05-07 19:56 | 58.03273 | 66.83617 | 22310 ft | 317 kts | 229° |
| 2026-05-07 19:56 | 58.01669 | 66.80782 | 21891 ft | 315 kts | 229° |
| 2026-05-07 19:56 | 58.00075 | 66.77969 | 21458 ft | 313 kts | 229° |
| 2026-05-07 19:57 | 57.98488 | 66.75170 | 21043 ft | 312 kts | 229° |
| 2026-05-07 19:57 | 57.96909 | 66.72390 | 20625 ft | 310 kts | 229° |
| 2026-05-07 19:57 | 57.95349 | 66.69648 | 20217 ft | 308 kts | 229° |
| 2026-05-07 19:57 | 57.93784 | 66.66899 | 19798 ft | 307 kts | 229° |
| 2026-05-07 19:58 | 57.92231 | 66.64175 | 19381 ft | 305 kts | 229° |
| 2026-05-07 19:58 | 57.90702 | 66.61497 | 18971 ft | 304 kts | 229° |
| 2026-05-07 19:58 | 57.89164 | 66.58806 | 18578 ft | 302 kts | 229° |
| 2026-05-07 19:58 | 57.87638 | 66.56140 | 18167 ft | 300 kts | 229° |
| 2026-05-07 19:59 | 57.86108 | 66.53470 | 17767 ft | 298 kts | 229° |
| 2026-05-07 19:59 | 57.84598 | 66.50835 | 17377 ft | 297 kts | 228° |
| 2026-05-07 19:59 | 57.83087 | 66.48202 | 16860 ft | 299 kts | 228° |
| 2026-05-07 19:59 | 57.81561 | 66.45546 | 16391 ft | 299 kts | 228° |
| 2026-05-07 20:00 | 57.80042 | 66.42911 | 16015 ft | 297 kts | 228° |
| 2026-05-07 20:00 | 57.78557 | 66.40338 | 15623 ft | 295 kts | 227° |
| 2026-05-07 20:00 | 57.77051 | 66.37730 | 15243 ft | 293 kts | 227° |
| 2026-05-07 20:00 | 57.75573 | 66.35174 | 14873 ft | 290 kts | 228° |
| 2026-05-07 20:01 | 57.74095 | 66.32619 | 14481 ft | 288 kts | 227° |
| 2026-05-07 20:01 | 57.72656 | 66.30135 | 14116 ft | 286 kts | 227° |
| 2026-05-07 20:01 | 57.71179 | 66.27587 | 13743 ft | 284 kts | 227° |
| 2026-05-07 20:01 | 57.69746 | 66.25120 | 13377 ft | 283 kts | 226° |
| 2026-05-07 20:02 | 57.68308 | 66.22644 | 13016 ft | 281 kts | 226° |
| 2026-05-07 20:02 | 57.66880 | 66.20188 | 12653 ft | 279 kts | 227° |
| 2026-05-07 20:02 | 57.65478 | 66.17728 | 12289 ft | 277 kts | 228° |
| 2026-05-07 20:02 | 57.64095 | 66.15224 | 11925 ft | 275 kts | 228° |
| 2026-05-07 20:03 | 57.62737 | 66.12749 | 11564 ft | 274 kts | 228° |
| 2026-05-07 20:03 | 57.61357 | 66.10244 | 11200 ft | 272 kts | 228° |
| 2026-05-07 20:03 | 57.60013 | 66.07817 | 10850 ft | 271 kts | 228° |
| 2026-05-07 20:03 | 57.58674 | 66.05409 | 10497 ft | 269 kts | 228° |
| 2026-05-07 20:04 | 57.57321 | 66.02980 | 10148 ft | 268 kts | 227° |
| 2026-05-07 20:04 | 57.55978 | 66.00568 | 9854 ft | 267 kts | 227° |
| 2026-05-07 20:04 | 57.54658 | 65.98206 | 9574 ft | 263 kts | 227° |
| 2026-05-07 20:04 | 57.53353 | 65.95869 | 9233 ft | 262 kts | 227° |
| 2026-05-07 20:05 | 57.52038 | 65.93517 | 8900 ft | 260 kts | 227° |
| 2026-05-07 20:05 | 57.50744 | 65.91206 | 8573 ft | 259 kts | 227° |
| 2026-05-07 20:05 | 57.49333 | 65.89103 | 8234 ft | 268 kts | 214° |
| 2026-05-07 20:05 | 57.47567 | 65.87974 | 7909 ft | 273 kts | 192° |
| 2026-05-07 20:06 | 57.45684 | 65.87618 | 7568 ft | 272 kts | 187° |
| 2026-05-07 20:06 | 57.43809 | 65.87376 | 7235 ft | 271 kts | 187° |
| 2026-05-07 20:06 | 57.41943 | 65.87068 | 6897 ft | 269 kts | 189° |
| 2026-05-07 20:06 | 57.40088 | 65.86688 | 6558 ft | 267 kts | 189° |
| 2026-05-07 20:07 | 57.38252 | 65.86278 | 6230 ft | 266 kts | 189° |
| 2026-05-07 20:07 | 57.36428 | 65.85860 | 5895 ft | 264 kts | 189° |
| 2026-05-07 20:07 | 57.34624 | 65.85450 | 5565 ft | 263 kts | 188° |
| 2026-05-07 20:07 | 57.32795 | 65.85037 | 5234 ft | 262 kts | 188° |
| 2026-05-07 20:08 | 57.30988 | 65.84632 | 4969 ft | 260 kts | 187° |
| 2026-05-07 20:08 | 57.29188 | 65.84229 | 4960 ft | 263 kts | 187° |
| 2026-05-07 20:08 | 57.27368 | 65.83823 | 4960 ft | 264 kts | 187° |
| 2026-05-07 20:08 | 57.25542 | 65.83415 | 4959 ft | 265 kts | 187° |
| 2026-05-07 20:09 | 57.23726 | 65.83009 | 4956 ft | 264 kts | 187° |
| 2026-05-07 20:09 | 57.21912 | 65.82604 | 4955 ft | 265 kts | 187° |
| 2026-05-07 20:09 | 57.20111 | 65.82202 | 4957 ft | 265 kts | 187° |
| 2026-05-07 20:10 | 57.16440 | 65.81383 | 4955 ft | 265 kts | 187° |
| 2026-05-07 20:10 | 57.14690 | 65.80993 | 4952 ft | 265 kts | 187° |
| 2026-05-07 20:10 | 57.12968 | 65.80609 | 4953 ft | 266 kts | 187° |
| 2026-05-07 20:10 | 57.11138 | 65.80203 | 4958 ft | 265 kts | 187° |
| 2026-05-07 20:11 | 57.09299 | 65.79795 | 4957 ft | 265 kts | 187° |
| 2026-05-07 20:11 | 57.07500 | 65.79188 | 4949 ft | 264 kts | 198° |
| 2026-05-07 20:11 | 57.05904 | 65.77585 | 4943 ft | 263 kts | 223° |
| 2026-05-07 20:11 | 57.04690 | 65.75125 | 4947 ft | 262 kts | 232° |
| 2026-05-07 20:12 | 57.03554 | 65.72486 | 4939 ft | 262 kts | 232° |
| 2026-05-07 20:12 | 57.02403 | 65.69898 | 4942 ft | 262 kts | 231° |
| 2026-05-07 20:12 | 57.01230 | 65.67374 | 4941 ft | 262 kts | 230° |
| 2026-05-07 20:12 | 57.00135 | 65.64689 | 4940 ft | 261 kts | 242° |
| 2026-05-07 20:13 | 56.99569 | 65.61583 | 4861 ft | 261 kts | 265° |
| 2026-05-07 20:13 | 56.99553 | 65.58269 | 4614 ft | 259 kts | 275° |
| 2026-05-07 20:13 | 56.99649 | 65.54967 | 4357 ft | 258 kts | 275° |
| 2026-05-07 20:13 | 56.99710 | 65.51670 | 4106 ft | 260 kts | 273° |
| 2026-05-07 20:14 | 56.99729 | 65.48372 | 3857 ft | 260 kts | 272° |
| 2026-05-07 20:14 | 56.99727 | 65.45046 | 3608 ft | 261 kts | 271° |
| 2026-05-07 20:14 | 56.99719 | 65.41697 | 3350 ft | 262 kts | 271° |
| 2026-05-07 20:14 | 56.99710 | 65.38389 | 3099 ft | 263 kts | 271° |
| 2026-05-07 20:15 | 56.99702 | 65.35066 | 2962 ft | 261 kts | 272° |
| 2026-05-07 20:15 | 56.99694 | 65.31720 | 2965 ft | 265 kts | 271° |
| 2026-05-07 20:15 | 56.99686 | 65.28315 | 2960 ft | 264 kts | 271° |
| 2026-05-07 20:15 | 56.99676 | 65.24945 | 2965 ft | 264 kts | 271° |
| 2026-05-07 20:16 | 56.99830 | 65.21596 | 2956 ft | 263 kts | 285° |
| 2026-05-07 20:16 | 57.00600 | 65.18700 | 2952 ft | 250 kts | 314° |
| 2026-05-07 20:16 | 57.01843 | 65.16595 | 2958 ft | 240 kts | 324° |
| 2026-05-07 20:16 | 57.03102 | 65.14737 | 2955 ft | 232 kts | 324° |
| 2026-05-07 20:17 | 57.04333 | 65.12824 | 2956 ft | 224 kts | 322° |
| 2026-05-07 20:17 | 57.05540 | 65.11131 | 2953 ft | 213 kts | 334° |
| 2026-05-07 20:17 | 57.06859 | 65.10393 | 2921 ft | 191 kts | 5° |
| 2026-05-07 20:17 | 57.08102 | 65.10958 | 2677 ft | 182 kts | 29° |
| 2026-05-07 20:18 | 57.08822 | 65.11741 | 2501 ft | 178 kts | 40° |
| 2026-05-07 20:18 | 57.09915 | 65.13850 | 2248 ft | 168 kts | 52° |
| 2026-05-07 20:18 | 57.10680 | 65.15447 | 2041 ft | 162 kts | 50° |
| 2026-05-07 20:18 | 57.11409 | 65.16922 | 1865 ft | 147 kts | 51° |
| 2026-05-07 20:19 | 57.12060 | 65.18254 | 1680 ft | 136 kts | 51° |
| 2026-05-07 20:19 | 57.12688 | 65.19533 | 1508 ft | 135 kts | 51° |
| 2026-05-07 20:19 | 57.13322 | 65.20817 | 1338 ft | 137 kts | 51° |
| 2026-05-07 20:19 | 57.13959 | 65.22124 | 1175 ft | 139 kts | 50° |
| 2026-05-07 20:20 | 57.14607 | 65.23443 | 1004 ft | 139 kts | 50° |
| 2026-05-07 20:20 | 57.15265 | 65.24777 | 835 ft | 141 kts | 49° |
| 2026-05-07 20:20 | 57.15918 | 65.26094 | 668 ft | 141 kts | 49° |
| 2026-05-07 20:20 | 57.16585 | 65.27437 | 495 ft | 142 kts | 48° |
| 2026-05-07 20:21 | 57.17247 | 65.28777 | 371 ft | 138 kts | 47° |
| 2026-05-07 20:21 | 57.17815 | 65.29923 | 362 ft | 103 kts | 47° |
| 2026-05-07 20:21 | 57.18219 | 65.30734 | 352 ft | 60 kts | 47° |
| 2026-05-07 20:21 | 57.18365 | 65.31029 | 348 ft | 21 kts | 47° |
| 2026-05-07 20:22 | 57.18466 | 65.31235 | 346 ft | 21 kts | 46° |
| 2026-05-07 20:22 | 57.18566 | 65.31438 | 342 ft | 22 kts | 47° |
| 2026-05-07 20:22 | 57.18663 | 65.31632 | 337 ft | 16 kts | 47° |
| 2026-05-07 20:22 | 57.18705 | 65.31746 | 333 ft | 7 kts | 81° |
| 2026-05-07 20:23 | 57.18685 | 65.31813 | 333 ft | 5 kts | 137° |
| 2026-05-07 20:23 | 57.18646 | 65.31879 | 333 ft | 9 kts | 137° |
| 2026-05-07 20:23 | 57.18599 | 65.31957 | 333 ft | 8 kts | 137° |
| 2026-05-07 20:23 | 57.18561 | 65.32021 | 334 ft | 6 kts | 137° |
| 2026-05-07 20:24 | 57.18528 | 65.32076 | 334 ft | 8 kts | 137° |
| 2026-05-07 20:24 | 57.18478 | 65.32161 | 334 ft | 9 kts | 131° |
| 2026-05-07 20:24 | 57.18462 | 65.32259 | 335 ft | 8 kts | 90° |
| 2026-05-07 20:24 | 57.18464 | 65.32365 | 333 ft | 8 kts | 88° |
| 2026-05-07 20:25 | 57.18466 | 65.32485 | 332 ft | 11 kts | 88° |
| 2026-05-07 20:25 | 57.18469 | 65.32632 | 331 ft | 11 kts | 88° |
| 2026-05-07 20:25 | 57.18472 | 65.32787 | 329 ft | 12 kts | 87° |
| 2026-05-07 20:25 | 57.18476 | 65.32961 | 325 ft | 13 kts | 89° |
| 2026-05-07 20:26 | 57.18483 | 65.33088 | 325 ft | 9 kts | 69° |
| 2026-05-07 20:26 | 57.18527 | 65.33184 | 321 ft | 11 kts | 44° |
| 2026-05-07 20:26 | 57.18591 | 65.33308 | 317 ft | 13 kts | 47° |
| 2026-05-07 20:26 | 57.18619 | 65.33399 | 315 ft | 7 kts | 87° |
| 2026-05-07 20:27 | 57.18619 | 65.33438 | 315 ft | 0 kts | 89° |
| 2026-05-07 20:27 | 57.18619 | 65.33446 | 315 ft | 3 kts | 89° |
| 2026-05-07 20:27 | 57.18619 | 65.33553 | 314 ft | 9 kts | 90° |
| 2026-05-07 20:27 | 57.18590 | 65.33650 | 314 ft | 8 kts | 133° |
| 2026-05-07 20:28 | 57.18552 | 65.33720 | 315 ft | 6 kts | 134° |
| 2026-05-07 20:28 | 57.18512 | 65.33797 | 316 ft | 10 kts | 134° |
| 2026-05-07 20:28 | 57.18454 | 65.33903 | 319 ft | 13 kts | 134° |
| 2026-05-07 20:28 | 57.18381 | 65.34039 | 321 ft | 16 kts | 134° |
| 2026-05-07 20:29 | 57.18291 | 65.34204 | 324 ft | 18 kts | 134° |
| 2026-05-07 20:29 | 57.18203 | 65.34370 | 325 ft | 17 kts | 134° |
| 2026-05-07 20:29 | 57.18130 | 65.34506 | 327 ft | 12 kts | 134° |
| 2026-05-07 20:29 | 57.18077 | 65.34604 | 328 ft | 9 kts | 130° |
| 2026-05-07 20:30 | 57.18068 | 65.34673 | 329 ft | 4 kts | 71° |
| 2026-05-07 20:30 | 57.18093 | 65.34721 | 328 ft | 5 kts | 45° |
| 2026-05-07 20:30 | 57.18107 | 65.34747 | 328 ft | 0 kts | 45° |